createdAt,value
2023-06-07T00:02:13.313Z,7.30
2023-06-07T00:05:22.319Z,7.70
2023-06-07T00:08:24.498Z,7.20
2023-06-07T00:14:27.977Z,7.10
2023-06-07T00:17:29.887Z,7.10
2023-06-07T00:20:32.227Z,7.40
2023-06-07T00:23:36.048Z,7.80
2023-06-07T00:26:39.779Z,7.50
2023-06-07T00:29:41.634Z,7.90
2023-06-07T00:32:44.655Z,8.50
2023-06-07T00:35:49.076Z,8.40
2023-06-07T00:38:51.115Z,8.70
2023-06-07T00:41:53.265Z,7.80
2023-06-07T00:47:57.349Z,8.50
2023-06-07T00:50:59.127Z,8.40
2023-06-07T00:54:05.876Z,8.60
2023-06-07T00:57:08.266Z,8.20
2023-06-07T01:00:13.773Z,9.00
2023-06-07T01:03:15.809Z,9.00
2023-06-07T01:06:17.923Z,8.40
2023-06-07T01:09:23.260Z,8.60
2023-06-07T01:12:25.989Z,9.10
2023-06-07T01:15:30.259Z,8.80
2023-06-07T01:18:33.422Z,8.40
2023-06-07T01:21:38.190Z,8.20
2023-06-07T01:24:43.596Z,8.70
2023-06-07T01:27:46.577Z,8.60
2023-06-07T01:30:49.295Z,8.50
2023-06-07T01:33:53.502Z,9.20
2023-06-07T01:36:56.449Z,8.60
2023-06-07T01:39:58.851Z,8.90
2023-06-07T01:43:01.222Z,8.90
2023-06-07T01:46:05.300Z,9.00
2023-06-07T01:49:07.132Z,8.50
2023-06-07T01:52:08.965Z,8.60
2023-06-07T01:55:11.017Z,8.50
2023-06-07T01:58:24.148Z,8.20
2023-06-07T02:01:34.360Z,8.40
2023-06-07T02:04:43.577Z,8.20
2023-06-07T02:07:51.154Z,7.50
2023-06-07T02:10:54.623Z,8.00
2023-06-07T02:13:56.681Z,8.50
2023-06-07T02:16:58.628Z,8.00
2023-06-07T02:20:00.569Z,7.90
2023-06-07T02:23:02.869Z,8.00
2023-06-07T02:26:05.096Z,8.10
2023-06-07T02:32:08.884Z,8.30
2023-06-07T02:38:12.277Z,7.70
2023-06-07T02:41:14.018Z,7.60
2023-06-07T02:44:15.765Z,7.60
2023-06-07T02:47:17.594Z,7.30
2023-06-07T02:50:19.659Z,7.60
2023-06-07T02:53:22.876Z,8.30
2023-06-07T02:59:27.473Z,6.90
2023-06-07T03:02:29.509Z,7.40
2023-06-07T03:08:37.412Z,7.10
2023-06-07T03:11:40.038Z,7.10
2023-06-07T03:14:42.993Z,7.60
2023-06-07T03:17:46.395Z,7.20
2023-06-07T03:20:49.047Z,7.20
2023-06-07T03:23:53.681Z,6.60
2023-06-07T03:26:58.234Z,7.00
2023-06-07T03:30:00.471Z,7.40
2023-06-07T03:36:07.929Z,7.10
2023-06-07T03:39:10.308Z,7.20
2023-06-07T03:45:15.380Z,7.00
2023-06-07T03:48:17.646Z,7.10
2023-06-07T03:51:19.552Z,6.70
2023-06-07T03:54:21.398Z,6.60
2023-06-07T03:57:23.685Z,6.70
2023-06-07T04:00:27.865Z,7.00
2023-06-07T04:03:33.336Z,6.60
2023-06-07T04:06:36.984Z,6.40
2023-06-07T04:09:40.547Z,6.40
2023-06-07T04:15:46.385Z,6.00
2023-06-07T04:18:48.436Z,6.00
2023-06-07T04:24:52.338Z,6.50
2023-06-07T04:27:59.885Z,6.10
2023-06-07T04:31:02.657Z,6.50
2023-06-07T04:34:06.286Z,6.70
2023-06-07T04:37:09.753Z,6.70
2023-06-07T04:40:14.628Z,6.70
2023-06-07T04:43:18.878Z,5.90
2023-06-07T04:46:21.431Z,6.60
2023-06-07T04:49:23.869Z,6.90
2023-06-07T04:52:27.676Z,7.00
2023-06-07T04:55:36.155Z,7.10
2023-06-07T04:58:42.094Z,6.50
2023-06-07T05:01:45.691Z,7.00
2023-06-07T05:04:47.725Z,7.00
2023-06-07T05:07:50.352Z,7.50
2023-06-07T05:10:52.083Z,6.90
2023-06-07T05:13:56.560Z,7.20
2023-06-07T05:17:01.828Z,7.30
2023-06-07T05:20:12.586Z,7.40
2023-06-07T05:23:17.195Z,6.80
2023-06-07T05:26:22.893Z,7.20
2023-06-07T05:29:24.795Z,6.90
2023-06-07T05:35:29.120Z,6.70
2023-06-07T05:38:32.250Z,6.90
2023-06-07T05:41:35.962Z,6.70
2023-06-07T05:44:38.165Z,7.00
2023-06-07T05:50:43.315Z,6.10
2023-06-07T05:53:45.113Z,6.30
2023-06-07T05:56:49.006Z,6.10
2023-06-07T05:59:51.377Z,6.10
2023-06-07T06:02:57.111Z,6.60
2023-06-07T06:05:59.038Z,6.60
2023-06-07T06:09:01.150Z,6.10
2023-06-07T06:15:06.334Z,6.30
2023-06-07T06:18:08.222Z,6.80
2023-06-07T06:21:10.194Z,6.10
2023-06-07T06:24:11.985Z,5.80
2023-06-07T06:27:13.842Z,6.00
2023-06-07T06:30:17.736Z,5.90
2023-06-07T06:33:19.633Z,5.70
2023-06-07T06:36:21.420Z,6.50
2023-06-07T06:39:26.478Z,5.60
2023-06-07T06:42:28.303Z,6.20
2023-06-07T06:45:58.893Z,5.50
2023-06-07T06:49:11.359Z,5.40
2023-06-07T06:55:27.144Z,6.20
2023-06-07T06:58:32.068Z,6.80
2023-06-07T07:01:53.419Z,5.40
2023-06-07T07:04:56.945Z,6.00
2023-06-07T07:08:00.053Z,5.30
2023-06-07T07:11:03.839Z,6.10
2023-06-07T07:14:06.959Z,4.90
2023-06-07T07:17:10.056Z,4.50
2023-06-07T07:20:13.921Z,4.10
2023-06-07T07:23:20.960Z,4.40
2023-06-07T07:26:24.373Z,4.30
2023-06-07T07:29:29.007Z,4.20
2023-06-07T07:32:34.118Z,4.20
2023-06-07T07:35:37.473Z,4.20
2023-06-07T07:38:41.649Z,4.00
2023-06-07T07:41:45.051Z,4.40
2023-06-07T07:44:48.201Z,4.20
2023-06-07T07:47:51.494Z,3.70
2023-06-07T07:50:56.429Z,3.60
2023-06-07T07:53:59.961Z,3.20
2023-06-07T07:57:03.221Z,3.50
2023-06-07T08:00:07.119Z,3.30
2023-06-07T08:03:16.824Z,3.20
2023-06-07T08:06:20.072Z,2.90
2023-06-07T08:09:23.172Z,4.00
2023-06-07T08:12:26.224Z,3.40
2023-06-07T08:15:29.409Z,3.40
2023-06-07T08:18:32.424Z,3.40
2023-06-07T08:21:36.808Z,2.90
2023-06-07T08:24:39.925Z,3.20
2023-06-07T08:27:43.325Z,3.10
2023-06-07T08:30:48.750Z,3.40
2023-06-07T08:33:52.926Z,2.90
2023-06-07T08:36:56.179Z,3.00
2023-06-07T08:39:59.233Z,3.00
2023-06-07T08:43:02.432Z,3.20
2023-06-07T08:46:06.072Z,3.00
2023-06-07T08:49:12.175Z,3.20
2023-06-07T08:52:17.374Z,3.00
2023-06-07T08:55:21.005Z,3.20
2023-06-07T08:58:25.954Z,3.30
2023-06-07T09:01:36.586Z,3.20
2023-06-07T09:04:42.317Z,2.90
2023-06-07T09:07:45.478Z,3.50
2023-06-07T09:10:48.575Z,3.40
2023-06-07T09:13:52.028Z,3.20
2023-06-07T09:16:56.734Z,3.20
2023-06-07T09:19:59.932Z,3.00
2023-06-07T09:23:10.435Z,3.30
2023-06-07T09:26:14.900Z,3.40
2023-06-07T09:29:20.079Z,3.30
2023-06-07T09:32:25.431Z,3.40
2023-06-07T09:35:29.349Z,3.30
2023-06-07T09:38:32.523Z,3.50
2023-06-07T09:41:35.724Z,3.30
2023-06-07T09:44:39.062Z,3.40
2023-06-07T09:47:46.462Z,3.90
2023-06-07T09:50:57.216Z,3.50
2023-06-07T09:54:02.424Z,3.60
2023-06-07T09:57:08.090Z,3.90
2023-06-07T10:00:18.992Z,3.40
2023-06-07T10:03:22.121Z,3.80
2023-06-07T10:06:25.988Z,4.40
2023-06-07T10:09:31.019Z,3.70
2023-06-07T10:12:39.935Z,4.10
2023-06-07T10:15:46.003Z,4.10
2023-06-07T10:18:52.451Z,4.50
2023-06-07T10:21:58.880Z,4.50
2023-06-07T10:25:13.368Z,4.70
2023-06-07T10:28:59.546Z,4.90
2023-06-07T10:32:17.004Z,4.80
2023-06-07T10:35:21.633Z,5.00
2023-06-07T10:38:25.689Z,4.40
2023-06-07T10:41:30.007Z,4.40
2023-06-07T10:44:33.747Z,4.20
2023-06-07T10:47:37.075Z,4.40
2023-06-07T10:50:48.079Z,4.40
2023-06-07T10:53:51.383Z,4.10
2023-06-07T10:56:54.739Z,4.20
2023-06-07T11:00:31.317Z,4.10
2023-06-07T11:03:34.881Z,3.40
2023-06-07T11:07:17.068Z,3.10
2023-06-07T11:10:20.135Z,3.10
2023-06-07T11:13:23.273Z,2.80
2023-06-07T11:16:27.115Z,2.80
2023-06-07T11:19:56.631Z,2.50
2023-06-07T11:23:35.653Z,2.20
2023-06-07T11:26:39.216Z,1.90
2023-06-07T11:29:44.245Z,2.10
2023-06-07T11:32:47.322Z,2.30
2023-06-07T11:35:51.382Z,2.40
2023-06-07T11:38:57.000Z,2.40
2023-06-07T11:42:00.090Z,2.50
2023-06-07T11:45:03.355Z,2.70
2023-06-07T11:48:07.350Z,2.50
2023-06-07T11:51:10.461Z,2.50
2023-06-07T11:54:13.870Z,2.20
2023-06-07T11:57:17.465Z,2.50
2023-06-07T12:00:24.600Z,2.30
2023-06-07T12:03:28.319Z,2.10
2023-06-07T12:06:31.723Z,2.30
2023-06-07T12:09:43.884Z,2.40
2023-06-07T12:15:57.026Z,2.00
2023-06-07T12:19:00.377Z,2.70
2023-06-07T12:22:05.193Z,2.60
2023-06-07T12:25:13.411Z,2.70
2023-06-07T12:28:17.705Z,2.10
2023-06-07T12:31:23.224Z,2.10
2023-06-07T12:34:31.385Z,1.90
2023-06-07T12:37:38.601Z,1.90
2023-06-07T12:40:42.009Z,1.90
2023-06-07T12:43:47.498Z,2.20
2023-06-07T12:46:50.666Z,2.50
2023-06-07T12:49:53.900Z,2.30
2023-06-07T12:52:57.598Z,1.90
2023-06-07T12:56:00.753Z,2.00
2023-06-07T12:59:04.509Z,1.80
2023-06-07T13:02:07.823Z,1.60
2023-06-07T13:05:12.345Z,1.70
2023-06-07T13:08:15.502Z,1.60
2023-06-07T13:11:19.621Z,1.60
2023-06-07T13:14:22.704Z,1.60
2023-06-07T13:17:26.103Z,1.50
2023-06-07T13:20:29.412Z,1.80
2023-06-07T13:23:32.449Z,1.50
2023-06-07T13:26:35.494Z,1.70
2023-06-07T13:29:39.486Z,1.60
2023-06-07T13:32:42.711Z,1.40
2023-06-07T13:35:46.204Z,1.40
2023-06-07T13:38:49.965Z,1.70
2023-06-07T13:41:53.094Z,1.50
2023-06-07T13:44:56.230Z,1.60
2023-06-07T13:47:59.849Z,1.60
2023-06-07T13:51:05.231Z,1.80
2023-06-07T13:54:08.324Z,1.60
2023-06-07T13:57:11.414Z,1.90
2023-06-07T14:00:15.082Z,1.40
2023-06-07T14:03:21.239Z,1.50
2023-06-07T14:06:24.814Z,1.60
2023-06-07T14:09:28.748Z,1.60
2023-06-07T14:12:31.919Z,1.50
2023-06-07T14:15:35.029Z,1.50
2023-06-07T14:18:38.052Z,1.50
2023-06-07T14:21:41.244Z,1.70
2023-06-07T14:24:44.618Z,1.70
2023-06-07T14:27:47.736Z,1.60
2023-06-07T14:30:51.845Z,1.50
2023-06-07T14:33:54.989Z,1.50
2023-06-07T14:36:57.983Z,1.70
2023-06-07T14:40:01.492Z,1.70
2023-06-07T14:43:04.647Z,1.60
2023-06-07T14:46:07.897Z,1.70
2023-06-07T14:49:11.352Z,1.90
2023-06-07T14:52:14.446Z,1.60
2023-06-07T14:55:17.939Z,2.10
2023-06-07T14:58:21.166Z,1.60
2023-06-07T15:01:26.437Z,1.70
2023-06-07T15:04:29.570Z,1.80
2023-06-07T15:07:32.557Z,1.60
2023-06-07T15:10:35.838Z,1.80
2023-06-07T15:13:39.138Z,1.70
2023-06-07T15:16:42.262Z,2.20
2023-06-07T15:19:45.909Z,2.20
2023-06-07T15:22:49.040Z,2.70
2023-06-07T15:25:52.098Z,2.50
2023-06-07T15:28:58.074Z,2.20
2023-06-07T15:32:02.076Z,2.20
2023-06-07T15:35:05.640Z,2.40
2023-06-07T15:38:08.662Z,2.20
2023-06-07T15:41:15.034Z,2.20
2023-06-07T15:44:18.858Z,2.10
2023-06-07T15:47:21.940Z,2.50
2023-06-07T15:50:25.039Z,2.20
2023-06-07T15:53:28.105Z,2.20
2023-06-07T15:56:31.246Z,2.10
2023-06-07T15:59:36.368Z,2.30
2023-06-07T16:02:39.467Z,2.20
2023-06-07T16:05:42.764Z,2.40
2023-06-07T16:08:45.794Z,2.30
2023-06-07T16:11:49.024Z,2.50
2023-06-07T16:14:52.289Z,2.50
2023-06-07T16:17:55.512Z,2.80
2023-06-07T16:20:58.610Z,2.50
2023-06-07T16:24:03.827Z,3.00
2023-06-07T16:27:07.270Z,2.70
2023-06-07T16:30:10.989Z,2.60
2023-06-07T16:33:14.193Z,2.80
2023-06-07T16:36:18.487Z,3.00
2023-06-07T16:39:21.518Z,2.70
2023-06-07T16:42:24.596Z,2.60
2023-06-07T16:45:27.659Z,2.90
2023-06-07T16:48:30.655Z,2.80
2023-06-07T16:51:34.081Z,3.10
2023-06-07T16:54:37.066Z,2.70
2023-06-07T16:57:40.516Z,2.50
2023-06-07T17:00:43.812Z,2.50
2023-06-07T17:03:46.957Z,2.60
2023-06-07T17:06:50.025Z,2.90
2023-06-07T17:09:53.060Z,3.00
2023-06-07T17:12:56.098Z,3.20
2023-06-07T17:15:59.235Z,3.10
2023-06-07T17:19:03.548Z,2.90
2023-06-07T17:22:07.176Z,2.60
2023-06-07T17:25:10.443Z,3.10
2023-06-07T17:28:13.603Z,2.90
2023-06-07T17:31:16.928Z,2.70
2023-06-07T17:34:20.031Z,3.20
2023-06-07T17:37:23.069Z,2.80
2023-06-07T17:40:26.129Z,3.10
2023-06-07T17:43:29.361Z,3.00
2023-06-07T17:46:35.584Z,2.90
2023-06-07T17:49:38.599Z,3.00
2023-06-07T17:52:41.558Z,3.40
2023-06-07T17:55:46.793Z,3.10
2023-06-07T17:58:50.034Z,3.00
2023-06-07T18:01:55.178Z,3.50
2023-06-07T18:04:58.428Z,3.40
2023-06-07T18:08:01.643Z,4.60
2023-06-07T18:11:04.672Z,3.60
2023-06-07T18:14:07.758Z,3.30
2023-06-07T18:17:11.384Z,2.80
2023-06-07T18:20:14.497Z,3.00
2023-06-07T18:23:17.621Z,4.20
2023-06-07T18:26:22.674Z,3.20
2023-06-07T18:29:26.007Z,3.10
2023-06-07T18:32:29.035Z,2.70
2023-06-07T18:35:32.837Z,3.00
2023-06-07T18:38:36.168Z,2.90
2023-06-07T18:41:39.661Z,3.10
2023-06-07T18:44:42.774Z,3.10
2023-06-07T18:47:46.351Z,2.90
2023-06-07T18:50:49.793Z,3.40
2023-06-07T18:53:54.186Z,3.00
2023-06-07T18:56:58.365Z,3.00
2023-06-07T19:00:01.693Z,3.20
2023-06-07T19:03:05.042Z,3.30
2023-06-07T19:06:10.861Z,3.20
2023-06-07T19:09:15.474Z,3.10
2023-06-07T19:12:18.559Z,3.10
2023-06-07T19:15:22.007Z,2.90
2023-06-07T19:18:25.091Z,3.30
2023-06-07T19:21:32.202Z,3.50
2023-06-07T19:24:43.448Z,3.50
2023-06-07T19:27:46.631Z,3.60
2023-06-07T19:30:49.775Z,3.70
2023-06-07T19:33:53.804Z,3.30
2023-06-07T19:36:56.940Z,3.70
2023-06-07T19:40:05.986Z,3.60
2023-06-07T19:43:09.004Z,3.60
2023-06-07T19:46:12.177Z,3.40
2023-06-07T19:49:15.383Z,4.20
2023-06-07T19:52:19.430Z,3.90
2023-06-07T19:55:22.488Z,3.90
2023-06-07T19:58:25.488Z,4.00
2023-06-07T20:01:30.938Z,4.30
2023-06-07T20:04:34.210Z,4.00
2023-06-07T20:07:37.217Z,4.10
2023-06-07T20:10:40.393Z,5.10
2023-06-07T20:13:43.501Z,4.40
2023-06-07T20:16:46.817Z,4.40
2023-06-07T20:19:49.897Z,4.30
2023-06-07T20:22:53.070Z,4.80
2023-06-07T20:25:57.066Z,4.40
2023-06-07T20:29:02.325Z,4.70
2023-06-07T20:32:06.502Z,4.50
2023-06-07T20:35:09.928Z,4.50
2023-06-07T20:38:13.070Z,5.20
2023-06-07T20:41:16.284Z,4.60
2023-06-07T20:44:19.533Z,5.00
2023-06-07T20:47:22.690Z,4.80
2023-06-07T20:50:26.267Z,4.60
2023-06-07T20:53:29.614Z,5.30
2023-06-07T20:56:33.969Z,5.20
2023-06-07T20:59:44.643Z,4.40
2023-06-07T21:02:47.825Z,4.90
2023-06-07T21:05:50.922Z,5.10
2023-06-07T21:08:53.914Z,5.00
2023-06-07T21:11:56.965Z,5.00
2023-06-07T21:15:00.254Z,5.20
2023-06-07T21:18:03.643Z,5.40
2023-06-07T21:21:06.858Z,5.60
2023-06-07T21:24:10.111Z,5.40
2023-06-07T21:27:13.258Z,5.70
2023-06-07T21:30:16.462Z,5.60
2023-06-07T21:33:20.475Z,5.30
2023-06-07T21:36:23.493Z,5.90
2023-06-07T21:39:26.516Z,5.80
2023-06-07T21:42:29.573Z,5.90
2023-06-07T21:45:32.605Z,6.20
2023-06-07T21:48:40.059Z,6.30
2023-06-07T21:51:43.068Z,6.20
2023-06-07T21:54:47.880Z,7.00
2023-06-07T21:57:51.086Z,7.70
2023-06-07T22:00:54.338Z,6.50
2023-06-07T22:03:57.436Z,7.40
2023-06-07T22:07:00.637Z,6.90
2023-06-07T22:10:04.160Z,7.40
2023-06-07T22:13:07.309Z,7.10
2023-06-07T22:16:10.383Z,7.50
2023-06-07T22:19:15.565Z,7.30
2023-06-07T22:22:18.662Z,7.10
2023-06-07T22:25:39.455Z,6.80
2023-06-07T22:28:45.719Z,7.20
2023-06-07T22:31:49.043Z,7.20
2023-06-07T22:34:54.402Z,6.70
2023-06-07T22:37:58.003Z,7.00
2023-06-07T22:41:01.686Z,7.30
2023-06-07T22:44:05.299Z,7.00
2023-06-07T22:47:08.521Z,7.70
2023-06-07T22:50:11.898Z,7.70
2023-06-07T22:53:15.587Z,8.20
2023-06-07T22:56:18.708Z,7.80
2023-06-07T22:59:23.066Z,8.40
2023-06-07T23:02:27.025Z,7.80
2023-06-07T23:05:30.285Z,8.00
2023-06-07T23:08:33.926Z,7.80
2023-06-07T23:11:38.795Z,7.60
2023-06-07T23:14:41.915Z,7.40
2023-06-07T23:17:45.744Z,7.50
2023-06-07T23:20:49.992Z,7.70
2023-06-07T23:23:53.418Z,7.80
2023-06-07T23:26:59.612Z,8.10
2023-06-07T23:30:02.727Z,7.90
2023-06-07T23:33:07.265Z,8.00
2023-06-07T23:36:10.313Z,8.20
2023-06-07T23:39:13.347Z,8.10
2023-06-07T23:42:17.403Z,8.40
2023-06-07T23:45:22.175Z,7.70
2023-06-07T23:48:26.217Z,8.30
2023-06-07T23:51:29.336Z,8.50
2023-06-07T23:54:32.455Z,8.10
2023-06-07T23:57:35.550Z,8.60
